createdAt,value
2019-04-07T00:01:10.277Z,11.40
2019-04-07T00:03:40.048Z,11.40
2019-04-07T00:06:09.696Z,11.30
2019-04-07T00:08:39.140Z,11.30
2019-04-07T00:11:08.524Z,11.30
2019-04-07T00:13:38.377Z,11.30
2019-04-07T00:16:08.401Z,11.20
2019-04-07T00:18:37.906Z,11.20
2019-04-07T00:21:07.354Z,11.20
2019-04-07T00:23:36.831Z,11.30
2019-04-07T00:26:06.441Z,11.30
2019-04-07T00:28:36.723Z,11.30
2019-04-07T00:31:06.442Z,11.30
2019-04-07T00:33:35.910Z,11.30
2019-04-07T00:36:05.934Z,11.30
2019-04-07T00:38:35.869Z,11.30
2019-04-07T00:41:06.036Z,11.30
2019-04-07T00:43:35.490Z,11.30
2019-04-07T00:46:06.286Z,11.30
2019-04-07T00:48:36.319Z,11.30
2019-04-07T00:51:05.912Z,11.30
2019-04-07T00:53:36.704Z,11.30
2019-04-07T00:56:07.230Z,11.30
2019-04-07T00:58:36.925Z,11.30
2019-04-07T01:01:08.981Z,11.30
2019-04-07T01:03:38.153Z,11.30
2019-04-07T01:06:07.638Z,11.30
2019-04-07T01:08:37.262Z,11.30
2019-04-07T01:11:06.783Z,11.30
2019-04-07T01:13:36.294Z,11.30
2019-04-07T01:16:06.579Z,11.30
2019-04-07T01:18:37.066Z,11.30
2019-04-07T01:21:07.340Z,11.30
2019-04-07T01:23:36.843Z,11.30
2019-04-07T01:26:06.444Z,11.30
2019-04-07T01:28:36.296Z,11.20
2019-04-07T01:31:07.110Z,11.20
2019-04-07T01:33:36.778Z,11.10
2019-04-07T01:36:06.443Z,11.20
2019-04-07T01:38:35.847Z,11.10
2019-04-07T01:41:07.775Z,11.20
2019-04-07T01:43:44.729Z,11.10
2019-04-07T01:46:16.392Z,11.10
2019-04-07T01:48:51.066Z,11.10
2019-04-07T01:51:22.184Z,11.10
2019-04-07T01:53:53.190Z,11.10
2019-04-07T01:56:33.749Z,11.00
2019-04-07T01:59:19.972Z,11.00
2019-04-07T02:02:00.476Z,11.00
2019-04-07T02:04:37.487Z,11.00
2019-04-07T02:07:22.097Z,10.90
2019-04-07T02:12:55.631Z,10.90
2019-04-07T02:15:26.877Z,11.00
2019-04-07T02:18:00.921Z,11.00
2019-04-07T02:20:59.366Z,11.00
2019-04-07T02:23:33.886Z,11.00
2019-04-07T02:26:22.379Z,11.10
2019-04-07T02:29:02.675Z,11.10
2019-04-07T02:31:36.703Z,11.10
2019-04-07T02:34:09.542Z,11.00
2019-04-07T02:36:43.417Z,11.00
2019-04-07T02:39:23.186Z,11.00
2019-04-07T02:42:11.002Z,11.10
2019-04-07T02:44:57.419Z,11.10
2019-04-07T02:47:41.889Z,11.00
2019-04-07T02:50:24.144Z,11.00
2019-04-07T02:52:55.522Z,10.90
2019-04-07T02:55:42.436Z,10.90
2019-04-07T02:58:29.879Z,10.90
2019-04-07T03:01:10.019Z,10.80
2019-04-07T03:03:41.182Z,10.80
2019-04-07T03:06:37.660Z,10.80
2019-04-07T03:08:59.980Z,10.80
2019-04-07T03:11:37.363Z,10.70
2019-04-07T03:14:17.679Z,10.70
2019-04-07T03:17:06.523Z,10.60
2019-04-07T03:19:56.261Z,10.60
2019-04-07T03:22:42.489Z,10.70
2019-04-07T03:25:17.188Z,10.60
2019-04-07T03:27:57.460Z,10.60
2019-04-07T03:30:32.559Z,10.60
2019-04-07T03:33:11.138Z,10.60
2019-04-07T03:36:01.714Z,10.60
2019-04-07T03:38:31.485Z,10.60
2019-04-07T03:41:09.711Z,10.50
2019-04-07T03:43:41.700Z,10.60
2019-04-07T03:46:29.778Z,10.50
2019-04-07T03:49:18.771Z,10.60
2019-04-07T03:51:56.018Z,10.60
2019-04-07T03:54:30.304Z,10.60
2019-04-07T03:57:04.782Z,10.60
2019-04-07T03:59:42.503Z,10.60
2019-04-07T04:02:14.223Z,10.60
2019-04-07T04:04:45.721Z,10.60
2019-04-07T04:07:27.577Z,10.60
2019-04-07T04:09:53.661Z,10.50
2019-04-07T04:12:43.674Z,10.50
2019-04-07T04:15:15.182Z,10.50
2019-04-07T04:17:43.795Z,10.50
2019-04-07T04:20:13.341Z,10.50
2019-04-07T04:22:43.161Z,10.50
2019-04-07T04:25:12.872Z,10.40
2019-04-07T04:27:43.035Z,10.50
2019-04-07T04:30:13.427Z,10.40
2019-04-07T04:32:43.648Z,10.50
2019-04-07T04:35:13.289Z,10.60
2019-04-07T04:37:48.847Z,10.50
2019-04-07T04:40:15.942Z,10.50
2019-04-07T04:42:44.718Z,10.50
2019-04-07T04:45:15.859Z,10.50
2019-04-07T04:47:46.347Z,10.50
2019-04-07T04:50:16.865Z,10.50
2019-04-07T04:52:46.925Z,10.50
2019-04-07T04:55:16.695Z,10.50
2019-04-07T04:57:46.257Z,10.50
2019-04-07T05:00:16.256Z,10.50
2019-04-07T05:02:45.738Z,10.60
2019-04-07T05:05:15.152Z,10.60
2019-04-07T05:07:53.838Z,10.60
2019-04-07T05:10:15.832Z,10.60
2019-04-07T05:12:45.273Z,10.60
2019-04-07T05:15:14.796Z,10.60
2019-04-07T05:17:44.572Z,10.70
2019-04-07T05:20:14.163Z,10.70
2019-04-07T05:22:43.592Z,10.70
2019-04-07T05:25:13.101Z,10.70
2019-04-07T05:27:43.184Z,10.80
2019-04-07T05:30:12.889Z,10.80
2019-04-07T05:32:42.337Z,10.80
2019-04-07T05:35:12.087Z,10.80
2019-04-07T05:37:41.787Z,10.80
2019-04-07T05:40:11.363Z,10.80
2019-04-07T05:42:41.880Z,10.70
2019-04-07T05:45:11.544Z,10.80
2019-04-07T05:47:47.332Z,10.90
2019-04-07T05:50:12.232Z,10.90
2019-04-07T05:52:42.179Z,10.90
2019-04-07T05:55:14.227Z,10.90
2019-04-07T05:57:44.227Z,11.00
2019-04-07T06:00:16.564Z,11.10
2019-04-07T06:02:45.784Z,11.10
2019-04-07T06:05:16.280Z,11.10
2019-04-07T06:07:47.027Z,11.10
2019-04-07T06:10:16.797Z,11.20
2019-04-07T06:12:47.364Z,11.10
2019-04-07T06:15:21.615Z,11.10
2019-04-07T06:17:49.015Z,11.20
2019-04-07T06:20:18.930Z,11.20
2019-04-07T06:22:52.731Z,11.20
2019-04-07T06:25:19.597Z,11.20
2019-04-07T06:27:49.035Z,11.20
2019-04-07T06:30:19.797Z,11.40
2019-04-07T06:32:49.225Z,11.50
2019-04-07T06:35:19.263Z,11.60
2019-04-07T06:37:50.831Z,11.70
2019-04-07T06:40:21.311Z,11.80
2019-04-07T06:42:51.829Z,11.90
2019-04-07T06:45:25.739Z,12.00
2019-04-07T06:48:01.603Z,12.10
2019-04-07T06:50:57.759Z,12.20
2019-04-07T06:53:40.339Z,12.20
2019-04-07T06:56:17.564Z,12.40
2019-04-07T06:58:52.548Z,12.50
2019-04-07T07:01:25.791Z,12.60
2019-04-07T07:04:10.875Z,12.70
2019-04-07T07:06:39.427Z,12.90
2019-04-07T07:09:26.446Z,13.00
2019-04-07T07:12:00.711Z,13.00
2019-04-07T07:14:48.464Z,13.20
2019-04-07T07:17:25.705Z,13.20
2019-04-07T07:20:05.617Z,13.30
2019-04-07T07:22:41.499Z,13.50
2019-04-07T07:25:18.129Z,14.20
2019-04-07T07:27:47.791Z,14.70
2019-04-07T07:30:21.350Z,15.30
2019-04-07T07:32:48.662Z,15.60
2019-04-07T07:35:25.595Z,16.00
2019-04-07T07:37:58.409Z,16.40
2019-04-07T07:40:27.562Z,16.90
2019-04-07T07:42:59.130Z,16.90
2019-04-07T07:45:28.977Z,16.70
2019-04-07T07:47:58.355Z,16.90
2019-04-07T07:50:28.498Z,16.80
2019-04-07T07:52:59.253Z,16.90
2019-04-07T07:55:33.904Z,17.10
2019-04-07T07:57:59.947Z,17.30
2019-04-07T08:00:29.508Z,17.40
2019-04-07T08:02:59.278Z,17.50
2019-04-07T08:05:32.972Z,17.40
2019-04-07T08:08:00.605Z,17.60
2019-04-07T08:10:30.252Z,17.70
2019-04-07T08:12:59.727Z,17.70
2019-04-07T08:15:32.291Z,17.90
2019-04-07T08:18:03.181Z,18.00
2019-04-07T08:20:30.662Z,18.60
2019-04-07T08:23:00.675Z,18.50
2019-04-07T08:25:30.284Z,18.60
2019-04-07T08:28:02.180Z,18.60
2019-04-07T08:30:31.782Z,18.90
2019-04-07T08:33:02.201Z,19.00
2019-04-07T08:35:35.698Z,19.20
2019-04-07T08:38:05.465Z,19.50
2019-04-07T08:40:36.892Z,19.80
2019-04-07T08:43:06.241Z,20.20
2019-04-07T08:45:36.018Z,19.80
2019-04-07T08:48:06.362Z,19.30
2019-04-07T08:50:36.323Z,19.40
2019-04-07T08:53:05.801Z,19.50
2019-04-07T08:55:35.566Z,19.70
2019-04-07T08:58:06.643Z,19.80
2019-04-07T09:00:37.257Z,20.10
2019-04-07T09:03:11.451Z,20.00
2019-04-07T09:05:37.860Z,20.00
2019-04-07T09:08:07.472Z,20.40
2019-04-07T09:10:49.626Z,20.80
2019-04-07T09:13:18.630Z,20.80
2019-04-07T09:15:49.913Z,20.80
2019-04-07T09:18:27.253Z,21.00
2019-04-07T09:21:18.328Z,21.20
2019-04-07T09:24:03.832Z,21.70
2019-04-07T09:26:49.987Z,21.50
2019-04-07T09:29:31.258Z,21.80
2019-04-07T09:32:02.462Z,22.20
2019-04-07T09:34:52.872Z,22.60
2019-04-07T09:37:24.370Z,22.60
2019-04-07T09:40:04.808Z,22.30
2019-04-07T09:42:57.432Z,22.70
2019-04-07T09:45:42.635Z,22.80
2019-04-07T09:48:19.184Z,22.10
2019-04-07T09:50:54.464Z,21.90
2019-04-07T09:53:25.090Z,22.00
2019-04-07T09:55:59.207Z,22.00
2019-04-07T09:58:45.573Z,22.40
2019-04-07T10:01:22.297Z,23.10
2019-04-07T10:03:59.217Z,23.10
2019-04-07T10:06:39.723Z,23.00
2019-04-07T10:09:11.401Z,22.80
2019-04-07T10:11:58.751Z,22.10
2019-04-07T10:14:42.126Z,22.40
2019-04-07T10:17:16.470Z,22.30
2019-04-07T10:19:47.745Z,22.40
2019-04-07T10:22:35.209Z,21.80
2019-04-07T10:28:07.258Z,21.50
2019-04-07T10:30:41.453Z,21.50
2019-04-07T10:33:13.333Z,21.70
2019-04-07T10:35:51.180Z,21.60
2019-04-07T10:38:25.959Z,21.30
2019-04-07T10:41:15.146Z,21.50
2019-04-07T10:43:47.791Z,21.60
2019-04-07T10:46:36.392Z,21.90
2019-04-07T10:49:15.699Z,21.60
2019-04-07T10:52:03.025Z,21.80
2019-04-07T10:54:50.468Z,21.90
2019-04-07T10:57:36.724Z,21.80
2019-04-07T11:00:27.746Z,21.70
2019-04-07T11:03:08.402Z,21.40
2019-04-07T11:05:54.937Z,21.40
2019-04-07T11:08:29.739Z,21.80
2019-04-07T11:11:04.484Z,22.00
2019-04-07T11:13:51.627Z,21.90
2019-04-07T11:16:39.163Z,21.80
2019-04-07T11:19:19.284Z,21.70
2019-04-07T11:22:05.678Z,21.70
2019-04-07T11:24:39.855Z,21.20
2019-04-07T11:27:11.284Z,21.50
2019-04-07T11:29:42.607Z,21.70
2019-04-07T11:32:28.890Z,21.60
2019-04-07T11:35:00.104Z,21.50
2019-04-07T11:37:39.733Z,21.80
2019-04-07T11:40:13.848Z,21.90
2019-04-07T11:42:44.937Z,22.00
2019-04-07T11:45:34.791Z,21.90
2019-04-07T11:48:08.844Z,22.00
2019-04-07T11:50:46.166Z,22.50
2019-04-07T11:53:33.681Z,21.90
2019-04-07T11:56:09.899Z,22.60
2019-04-07T11:58:55.269Z,22.50
2019-04-07T12:01:29.299Z,22.00
2019-04-07T12:04:04.337Z,22.10
2019-04-07T12:06:52.609Z,22.50
2019-04-07T12:09:42.090Z,22.30
2019-04-07T12:12:28.886Z,22.70
2019-04-07T12:15:00.019Z,22.70
2019-04-07T12:17:43.561Z,22.50
2019-04-07T12:20:17.654Z,22.70
2019-04-07T12:23:05.055Z,22.80
2019-04-07T12:25:37.325Z,22.70
2019-04-07T12:28:08.588Z,22.70
2019-04-07T12:30:42.658Z,22.80
2019-04-07T12:33:13.783Z,22.70
2019-04-07T12:36:02.008Z,22.90
2019-04-07T12:38:49.665Z,22.70
2019-04-07T12:41:22.220Z,22.60
2019-04-07T12:43:59.505Z,22.80
2019-04-07T12:46:36.642Z,22.70
2019-04-07T12:49:10.862Z,22.60
2019-04-07T12:51:44.531Z,22.50
2019-04-07T12:54:15.710Z,22.70
2019-04-07T12:57:05.319Z,22.70
2019-04-07T12:59:35.819Z,22.50
2019-04-07T13:02:20.027Z,22.50
2019-04-07T13:04:55.047Z,22.10
2019-04-07T13:10:17.718Z,22.50
2019-04-07T13:13:05.083Z,22.30
2019-04-07T13:15:52.568Z,22.40
2019-04-07T13:18:24.197Z,22.70
2019-04-07T13:20:57.849Z,23.00
2019-04-07T13:23:29.718Z,22.90
2019-04-07T13:26:17.551Z,23.40
2019-04-07T13:29:05.315Z,23.10
2019-04-07T13:31:44.010Z,23.20
2019-04-07T13:34:21.015Z,23.40
2019-04-07T13:36:58.016Z,23.50
2019-04-07T13:39:47.067Z,23.60
2019-04-07T13:42:25.418Z,23.00
2019-04-07T13:45:13.224Z,22.90
2019-04-07T13:50:38.189Z,22.80
2019-04-07T13:53:27.024Z,22.90
2019-04-07T13:56:09.934Z,22.80
2019-04-07T13:58:56.992Z,22.80
2019-04-07T14:01:34.714Z,22.70
2019-04-07T14:04:22.600Z,22.90
2019-04-07T14:07:29.548Z,22.60
2019-04-07T14:10:16.189Z,22.90
2019-04-07T14:12:47.881Z,23.40
2019-04-07T14:15:18.372Z,23.50
2019-04-07T14:18:05.859Z,23.90
2019-04-07T14:20:40.482Z,23.60
2019-04-07T14:23:28.675Z,23.40
2019-04-07T14:26:08.585Z,22.90
2019-04-07T14:28:41.219Z,22.20
2019-04-07T14:31:18.348Z,22.50
2019-04-07T14:34:04.300Z,22.50
2019-04-07T14:36:52.384Z,22.70
2019-04-07T14:39:40.041Z,22.70
2019-04-07T14:42:11.960Z,23.30
2019-04-07T14:44:50.002Z,23.00
2019-04-07T14:47:30.383Z,22.80
2019-04-07T14:50:02.370Z,23.00
2019-04-07T14:52:42.631Z,23.10
2019-04-07T14:55:32.535Z,23.10
2019-04-07T14:58:18.655Z,23.00
2019-04-07T15:01:04.513Z,23.00
2019-04-07T15:03:31.636Z,22.70
2019-04-07T15:06:02.194Z,22.60
2019-04-07T15:08:49.810Z,22.40
2019-04-07T15:11:23.748Z,22.30
2019-04-07T15:13:56.992Z,22.20
2019-04-07T15:16:26.323Z,22.40
2019-04-07T15:18:56.597Z,22.20
2019-04-07T15:21:26.076Z,22.30
2019-04-07T15:23:56.173Z,22.10
2019-04-07T15:26:25.597Z,22.00
2019-04-07T15:28:57.116Z,22.20
2019-04-07T15:31:26.432Z,22.50
2019-04-07T15:33:56.345Z,22.20
2019-04-07T15:36:26.431Z,22.10
2019-04-07T15:38:57.321Z,22.10
2019-04-07T15:41:28.127Z,22.10
2019-04-07T15:43:58.519Z,22.00
2019-04-07T15:47:00.099Z,21.40
2019-04-07T15:49:34.377Z,21.60
2019-04-07T15:51:38.736Z,21.10
2019-04-07T15:54:08.197Z,20.90
2019-04-07T15:56:37.971Z,20.70
2019-04-07T15:59:07.625Z,20.60
2019-04-07T16:01:38.635Z,20.50
2019-04-07T16:04:07.423Z,20.50
2019-04-07T16:06:37.091Z,20.90
2019-04-07T16:09:13.888Z,21.30
2019-04-07T16:11:40.544Z,21.60
2019-04-07T16:14:13.197Z,21.70
2019-04-07T16:16:41.529Z,21.60
2019-04-07T16:19:17.591Z,21.60
2019-04-07T16:21:43.425Z,21.50
2019-04-07T16:24:13.569Z,21.60
2019-04-07T16:26:43.330Z,21.60
2019-04-07T16:29:15.515Z,21.60
2019-04-07T16:31:43.941Z,21.80
2019-04-07T16:34:13.329Z,21.50
2019-04-07T16:36:43.354Z,21.60
2019-04-07T16:39:13.627Z,22.10
2019-04-07T16:41:45.891Z,21.90
2019-04-07T16:44:14.426Z,21.90
2019-04-07T16:46:43.798Z,21.40
2019-04-07T16:49:14.033Z,21.70
2019-04-07T16:51:43.588Z,21.60
2019-04-07T16:54:13.260Z,21.30
2019-04-07T16:56:44.033Z,21.40
2019-04-07T16:59:13.595Z,21.30
2019-04-07T17:01:43.358Z,21.30
2019-04-07T17:04:13.159Z,21.20
2019-04-07T17:06:42.604Z,21.10
2019-04-07T17:09:22.414Z,21.10
2019-04-07T17:11:51.587Z,21.00
2019-04-07T17:14:21.100Z,21.00
2019-04-07T17:16:50.468Z,20.90
2019-04-07T17:19:20.041Z,20.70
2019-04-07T17:21:50.137Z,20.40
2019-04-07T17:24:25.067Z,20.10
2019-04-07T17:26:52.958Z,19.90
2019-04-07T17:29:23.422Z,19.80
2019-04-07T17:31:52.976Z,19.70
2019-04-07T17:34:22.918Z,19.60
2019-04-07T17:36:55.994Z,19.60
2019-04-07T17:39:24.745Z,19.60
2019-04-07T17:42:00.169Z,19.50
2019-04-07T17:44:33.976Z,19.30
2019-04-07T17:47:08.412Z,19.20
2019-04-07T17:49:39.628Z,19.10
2019-04-07T17:52:22.524Z,19.00
2019-04-07T17:55:08.395Z,18.90
2019-04-07T17:57:56.427Z,18.80
2019-04-07T18:00:34.170Z,18.70
2019-04-07T18:03:09.539Z,18.60
2019-04-07T18:05:47.048Z,18.40
2019-04-07T18:08:20.184Z,18.30
2019-04-07T18:13:56.617Z,18.00
2019-04-07T18:16:32.258Z,18.00
2019-04-07T18:19:19.785Z,18.00
2019-04-07T18:21:54.163Z,17.90
2019-04-07T18:24:35.018Z,17.80
2019-04-07T18:27:17.146Z,17.80
2019-04-07T18:30:04.220Z,17.70
2019-04-07T18:32:41.764Z,17.70
2019-04-07T18:35:15.235Z,17.60
2019-04-07T18:37:46.347Z,17.40
2019-04-07T18:40:27.180Z,17.40
2019-04-07T18:43:18.887Z,17.30
2019-04-07T18:46:05.116Z,17.30
2019-04-07T18:48:53.324Z,17.20
2019-04-07T18:51:44.570Z,17.10
2019-04-07T18:54:19.316Z,17.10
2019-04-07T18:56:57.127Z,17.00
2019-04-07T18:59:29.753Z,17.00
2019-04-07T19:02:19.379Z,16.90
2019-04-07T19:04:51.595Z,16.80
2019-04-07T19:07:33.400Z,17.00
2019-04-07T19:10:12.954Z,16.90
2019-04-07T19:12:41.034Z,16.90
2019-04-07T19:15:18.040Z,16.80
2019-04-07T19:18:07.427Z,16.70
2019-04-07T19:20:44.125Z,16.70
2019-04-07T19:23:26.306Z,16.70
2019-04-07T19:26:16.421Z,16.70
2019-04-07T19:28:46.478Z,16.70
2019-04-07T19:31:20.291Z,16.60
2019-04-07T19:33:57.887Z,16.70
2019-04-07T19:36:27.389Z,16.60
2019-04-07T19:39:11.088Z,16.60
2019-04-07T19:41:42.453Z,16.60
2019-04-07T19:44:16.226Z,16.50
2019-04-07T19:47:01.534Z,16.50
2019-04-07T19:49:43.163Z,16.50
2019-04-07T19:52:34.110Z,16.50
2019-04-07T19:55:24.855Z,16.50
2019-04-07T19:58:09.727Z,16.40
2019-04-07T20:00:58.155Z,16.40
2019-04-07T20:03:45.342Z,16.40
2019-04-07T20:06:29.820Z,16.30
2019-04-07T20:09:17.776Z,16.30
2019-04-07T20:12:05.297Z,16.30
2019-04-07T20:14:52.701Z,16.30
2019-04-07T20:17:34.495Z,16.30
2019-04-07T20:20:15.375Z,16.30
2019-04-07T20:23:02.734Z,16.30
2019-04-07T20:25:41.099Z,16.20
2019-04-07T20:28:13.118Z,16.20
2019-04-07T20:30:51.445Z,16.20
2019-04-07T20:33:38.906Z,16.20
2019-04-07T20:36:23.363Z,16.10
2019-04-07T20:39:07.766Z,16.00
2019-04-07T20:41:40.229Z,16.00
2019-04-07T20:44:33.049Z,15.90
2019-04-07T20:47:17.610Z,15.90
2019-04-07T20:50:04.283Z,15.90
2019-04-07T20:52:38.362Z,15.80
2019-04-07T20:55:21.490Z,15.80
2019-04-07T20:58:18.723Z,15.70
2019-04-07T21:01:02.479Z,15.70
2019-04-07T21:03:30.439Z,15.70
2019-04-07T21:06:02.088Z,15.60
2019-04-07T21:08:39.913Z,15.50
2019-04-07T21:11:25.907Z,15.60
2019-04-07T21:14:09.278Z,15.60
2019-04-07T21:16:46.468Z,15.50
2019-04-07T21:19:23.475Z,15.50
2019-04-07T21:21:54.479Z,15.50
2019-04-07T21:24:43.474Z,15.50
2019-04-07T21:27:33.879Z,15.50
2019-04-07T21:30:06.541Z,15.50
2019-04-07T21:32:38.721Z,15.40
2019-04-07T21:35:29.195Z,15.40
2019-04-07T21:38:20.827Z,15.40
2019-04-07T21:40:50.149Z,15.40
2019-04-07T21:43:28.501Z,15.30
2019-04-07T21:46:21.056Z,15.30
2019-04-07T21:48:49.023Z,15.30
2019-04-07T21:51:29.094Z,15.30
2019-04-07T21:54:04.061Z,15.20
2019-04-07T21:56:35.352Z,15.20
2019-04-07T21:59:10.746Z,15.20
2019-04-07T22:01:59.209Z,15.10
2019-04-07T22:04:34.039Z,15.10
2019-04-07T22:07:07.745Z,15.10
2019-04-07T22:09:38.844Z,15.00
2019-04-07T22:12:08.569Z,15.00
2019-04-07T22:14:40.950Z,15.00
2019-04-07T22:17:09.466Z,15.00
2019-04-07T22:19:43.796Z,15.00
2019-04-07T22:22:10.827Z,15.00
2019-04-07T22:24:42.143Z,15.00
2019-04-07T22:27:11.532Z,14.90
2019-04-07T22:29:41.609Z,14.80
2019-04-07T22:32:11.690Z,14.80
2019-04-07T22:34:41.911Z,14.70
2019-04-07T22:37:12.173Z,14.70
2019-04-07T22:39:41.817Z,14.70
2019-04-07T22:42:14.412Z,14.70
2019-04-07T22:44:42.485Z,14.60
2019-04-07T22:47:13.120Z,14.50
2019-04-07T22:49:43.099Z,14.50
2019-04-07T22:52:16.047Z,14.40
2019-04-07T22:54:44.282Z,14.30
2019-04-07T22:57:15.391Z,14.20
2019-04-07T22:59:44.913Z,14.20
2019-04-07T23:02:14.344Z,14.10
2019-04-07T23:04:43.695Z,14.10
2019-04-07T23:07:14.041Z,14.10
2019-04-07T23:09:43.493Z,14.10
2019-04-07T23:12:14.719Z,14.10
2019-04-07T23:14:46.453Z,14.10
2019-04-07T23:17:17.665Z,14.00
2019-04-07T23:19:47.052Z,14.00
2019-04-07T23:22:16.479Z,14.00
2019-04-07T23:24:45.856Z,13.90
2019-04-07T23:27:15.217Z,13.90
2019-04-07T23:29:44.592Z,13.90
2019-04-07T23:32:14.044Z,13.80
2019-04-07T23:34:43.634Z,13.80
2019-04-07T23:37:13.195Z,13.80
2019-04-07T23:39:42.613Z,13.80
2019-04-07T23:42:13.156Z,13.80
2019-04-07T23:44:42.630Z,13.80
2019-04-07T23:47:12.007Z,13.80
2019-04-07T23:49:41.354Z,13.80
2019-04-07T23:52:11.093Z,13.90
2019-04-07T23:54:40.636Z,13.80
2019-04-07T23:57:09.988Z,13.90
2019-04-07T23:59:40.096Z,13.80
